ADDS METAR Data INFO
IDs: Format: Raw Decoded Include TAF

Data at: 1425 UTC 22 Feb 2018

KMCD 221415Z AUTO 00000KT 10SM BKN120 M05/M07 A3072 RMK AO2 T10481068
KMCD 221355Z AUTO 13003KT 10SM SCT120 M05/M07 A3072 RMK AO2 T10511071
KMCD 221335Z AUTO 12003KT 10SM SCT014 M06/M08 A3072 RMK AO2 T10591076
KMCD 221315Z AUTO 13003KT 10SM SCT014 M07/M08 A3071 RMK AO2 T10681080
KMCD 221255Z AUTO 11004KT 10SM CLR M09/M10 A3069 RMK AO2 T10881100
KMCD 221235Z AUTO 10004KT 10SM SCT015 M08/M10 A3068 RMK AO2 T10801096
KMCD 221215Z AUTO 11004KT 10SM CLR M07/M09 A3067 RMK AO2 T10721089
KMCD 221155Z AUTO 11005KT 10SM CLR M08/M09 A3066 RMK AO2 T10771092 11068 21097
KMCD 221135Z AUTO 11004KT 10SM CLR M07/M08 A3065 RMK AO2 T10681085
KMCD 221115Z AUTO 11005KT 10SM CLR M07/M08 A3065 RMK AO2 T10721083
KMCD 221055Z AUTO 12005KT 10SM CLR M09/M10 A3066 RMK AO2 T10911103
KMCD 221035Z AUTO 12004KT 10SM CLR M09/M10 A3066 RMK AO2 T10901102
KMCD 221015Z AUTO 13004KT 10SM CLR M08/M09 A3066 RMK AO2 T10771091
KMCD 220955Z AUTO 14004KT 10SM CLR M09/M10 A3066 RMK AO2 T10871097
KMCD 220935Z AUTO 14004KT 10SM SCT013 M09/M10 A3066 RMK AO2 T10931103
KMCD 220916Z AUTO 00000KT 10SM CLR M09/M10 A3066 RMK AO2 T10931103
KMCD 220855Z AUTO 00000KT 10SM CLR M09/M10 A3067 RMK AO2 T10921102
KMCD 220835Z AUTO 00000KT 10SM CLR M09/M10 A3067 RMK AO2 T10931105
KMCD 220815Z AUTO 00000KT 10SM CLR M09/M10 A3066 RMK AO2 T10951105
KMCD 220755Z AUTO 00000KT 10SM CLR M09/M10 A3067 RMK AO2 T10951105
KMCD 220735Z AUTO 00000KT 10SM CLR M09/M11 A3067 RMK AO2 T10951106
KMCD 220715Z AUTO 01003KT 10SM CLR M09/M11 A3067 RMK AO2 T10951106
KMCD 220655Z AUTO 00000KT 10SM CLR M10/M11 A3067 RMK AO2 T10961107
KMCD 220635Z AUTO 00000KT 10SM CLR M09/M10 A3067 RMK AO2 T10951105
KMCD 220615Z AUTO 00000KT 10SM CLR M09/M10 A3067 RMK AO2 T10951105
KMCD 220555Z AUTO 00000KT 10SM CLR M09/M10 A3067 RMK AO2 T10951105 11060 21096
KMCD 220535Z AUTO 00000KT 10SM CLR M09/M10 A3067 RMK AO2 T10951105
KMCD 220515Z AUTO 00000KT 10SM CLR M10/M11 A3067 RMK AO2 T10961107
KMCD 220455Z AUTO 00000KT 10SM CLR M09/M10 A3068 RMK AO2 T10941105
KMCD 220435Z AUTO 00000KT 10SM CLR M09/M10 A3067 RMK AO2 T10911102
KMCD 220415Z AUTO 00000KT 10SM CLR M09/M10 A3068 RMK AO2 T10901101
KMCD 220355Z AUTO 33003KT 10SM CLR M09/M10 A3067 RMK AO2 T10901102 400001090
KMCD 220035Z AUTO 25005KT 10SM CLR M06/M09 A3064 RMK AO2 T10611089
KMCD 220015Z AUTO 25007KT 10SM CLR M06/M09 A3063 RMK AO2 T10611087
KMCD 212355Z AUTO 24007KT 10SM CLR M06/M09 A3062 RMK AO2 T10601089 11043 21060
KMCD 212335Z AUTO 25006KT 10SM CLR M06/M09 A3060 RMK AO2 T10581090
KMCD 212315Z AUTO 24006KT 10SM CLR M06/M09 A3059 RMK AO2 T10571094
KMCD 212255Z AUTO 25007KT 10SM CLR M05/M09 A3059 RMK AO2 T10531092
KMCD 212235Z AUTO 24005KT 10SM CLR M05/M09 A3058 RMK AO2 T10551092
KMCD 212215Z AUTO 25004KT 10SM SCT031 M05/M09 A3058 RMK AO2 T10541093
KMCD 212155Z AUTO 25005KT 10SM SCT031 M05/M10 A3057 RMK AO2 T10521098
KMCD 212135Z AUTO 24008KT 10SM SCT031 M05/M10 A3057 RMK AO2 T10511098
KMCD 212115Z AUTO 25005G14KT 220V290 10SM SCT031 M05/M10 A3056 RMK AO2 T10501096
KMCD 212055Z AUTO 24007KT 10SM BKN031 M05/M10 A3055 RMK AO2 T10501097
KMCD 212035Z AUTO 24008G14KT 10SM BKN027 M05/M09 A3054 RMK AO2 T10461093
KMCD 212015Z AUTO 24007G14KT 190V260 10SM OVC027 M05/M09 A3053 RMK AO2 T10471089
KMCD 211955Z AUTO 24009KT 10SM OVC027 M05/M09 A3052 RMK AO2 T10471091
KMCD 211935Z AUTO 24007KT 10SM OVC025 M05/M09 A3051 RMK AO2 T10471094
KMCD 211915Z AUTO 25007KT 10SM OVC025 M04/M09 A3050 RMK AO2 T10431093
KMCD 211855Z AUTO 26009KT 10SM OVC023 M05/M09 A3050 RMK AO2 T10461091
KMCD 211836Z AUTO 27009KT 10SM OVC023 M05/M09 A3050 RMK AO2 T10481091
KMCD 211815Z AUTO 27010KT 10SM OVC023 M05/M09 A3050 RMK AO2 T10481088
KMCD 211755Z AUTO 27011KT 10SM OVC021 M05/M09 A3050 RMK AO2 T10511090 11050 21071
KMCD 211735Z AUTO 27009KT 10SM OVC019 M05/M09 A3050 RMK AO2 T10501091
KMCD 211715Z AUTO 27009KT 10SM -SN BKN019 OVC026 M05/M09 A3050 RMK AO2 T10531091
KMCD 211655Z AUTO 27011KT 10SM -SN BKN021 OVC025 M05/M09 A3049 RMK AO2 T10531091
KMCD 211635Z AUTO 27010KT 10SM -SN OVC023 M05/M09 A3048 RMK AO2 T10551090
KMCD 211615Z AUTO 28010KT 10SM -SN OVC021 M06/M09 A3047 RMK AO2 T10561090
KMCD 211555Z AUTO 27009KT 10SM -SN BKN021 OVC025 M06/M09 A3046 RMK AO2 T10571092
KMCD 211535Z AUTO 29006KT 7SM -SN BKN023 OVC028 M06/M10 A3045 RMK AO2 T10601096
KMCD 211515Z AUTO 29007KT 7SM -SN OVC023 M06/M10 A3044 RMK AO2 T10611097
KMCD 211455Z AUTO 30007G14KT 10SM -SN OVC023 M06/M10 A3044 RMK AO2 T10651100
KMCD 211435Z AUTO 29006KT 10SM -SN OVC023 M07/M10 A3042 RMK AO2 T10671102
KMCD 211415Z AUTO 30006KT 10SM -SN OVC023 M07/M10 A3042 RMK AO2 T10701101
KMCD 211355Z AUTO 31006KT 5SM -SN OVC021 M07/M10 A3040 RMK AO2 T10711102
KMCD 211335Z AUTO 31009G15KT 290V350 10SM OVC021 M07/M10 A3038 RMK AO2 T10701105
KMCD 211315Z AUTO 32010G17KT 280V340 10SM OVC019 M07/M10 A3038 RMK AO2 T10701104
KMCD 211255Z AUTO 32007G16KT 290V350 10SM OVC019 M07/M10 A3035 RMK AO2 T10671097
KMCD 210755Z AUTO 32009G18KT 10SM BKN015 BKN020 OVC037 M03/M05 A3015 RMK AO2 T10351053
KMCD 210735Z AUTO 32011G19KT 10SM BKN016 OVC037 M03/M06 A3012 RMK AO2 T10321056
KMCD 210715Z AUTO 32009G15KT 10SM OVC014 M03/M05 A3012 RMK AO2 T10291046
KMCD 210655Z AUTO 33011G19KT 10SM OVC012 M03/M04 A3010 RMK AO2 T10271041
KMCD 210635Z AUTO 32012G18KT 10SM BKN010 OVC016 M02/M03 A3010 RMK AO2 T10221032
KMCD 210615Z AUTO 32010G15KT 7SM BKN010 OVC017 M02/M03 A3008 RMK AO2 T10201029
KMCD 210555Z AUTO 31012G18KT 10SM OVC014 M02/M03 A3007 RMK AO2 T10161030 10007 21016